Time;durP1;ratioP1;P1;durP2;ratioP2;P2;SDS_P1;SDS_P2;PMS_P1;PMS_P2;Temp;Humidity;BMP_temperature;BMP_pressure;BME280_temperature;BME280_humidity;BME280_pressure;Samples;Min_cycle;Max_cycle;Signal;HPM_P1;HPM_P2
2021/08/01 00:02:15;;;;;;;12.80;10.82;;;23.80;98.20;;;;;;5055760;28;20031;-80
2021/08/01 00:04:41;;;;;;;15.20;11.80;;;23.70;98.10;;;;;;5055896;28;20025;-80
2021/08/01 00:07:07;;;;;;;20.33;11.90;;;23.70;98.10;;;;;;5055759;28;20063;-80
2021/08/01 00:09:34;;;;;;;15.48;11.70;;;23.80;98.40;;;;;;5055656;28;20075;-80
2021/08/01 00:11:59;;;;;;;15.68;12.45;;;23.70;98.40;;;;;;5056151;28;20033;-80
2021/08/01 00:14:25;;;;;;;14.73;11.57;;;23.80;98.30;;;;;;5055688;28;20108;-80
2021/08/01 00:16:51;;;;;;;17.40;12.77;;;23.80;98.40;;;;;;5055678;28;20018;-80
2021/08/01 00:19:16;;;;;;;16.92;12.35;;;23.80;98.50;;;;;;5055312;28;20420;-80
2021/08/01 00:21:42;;;;;;;14.85;11.20;;;23.80;98.50;;;;;;5055591;28;20048;-80
2021/08/01 00:24:08;;;;;;;16.65;10.80;;;23.90;98.40;;;;;;5055293;28;20028;-80
2021/08/01 00:26:33;;;;;;;16.73;10.82;;;23.90;98.40;;;;;;5055238;28;20040;-80
2021/08/01 00:28:59;;;;;;;13.18;11.35;;;23.90;98.30;;;;;;5055433;28;20496;-80
2021/08/01 00:31:25;;;;;;;11.80;9.43;;;23.90;98.30;;;;;;5055089;28;20048;-80
2021/08/01 00:33:51;;;;;;;11.95;9.52;;;23.90;98.10;;;;;;5054983;28;20024;-80
2021/08/01 00:36:16;;;;;;;11.40;9.20;;;23.90;98.10;;;;;;5055405;28;20375;-81
2021/08/01 00:38:42;;;;;;;11.43;9.07;;;23.90;97.90;;;;;;5055263;28;20047;-81
2021/08/01 00:41:07;;;;;;;14.77;8.57;;;24.00;97.30;;;;;;5054697;28;20074;-80
2021/08/01 00:43:33;;;;;;;10.75;8.95;;;23.90;97.20;;;;;;5054913;28;20043;-80
2021/08/01 00:45:59;;;;;;;10.48;8.77;;;23.90;97.10;;;;;;5055196;28;20027;-80
2021/08/01 00:48:26;;;;;;;13.43;9.45;;;24.00;96.90;;;;;;5054715;28;20049;-80
2021/08/01 00:50:53;;;;;;;12.25;9.25;;;23.90;96.70;;;;;;5054985;28;20108;-81
2021/08/01 00:53:19;;;;;;;10.02;8.93;;;23.90;96.90;;;;;;5054756;28;20169;-80
2021/08/01 00:55:45;;;;;;;9.80;8.80;;;23.80;97.30;;;;;;5054519;28;20025;-80
2021/08/01 00:58:11;;;;;;;10.73;8.88;;;23.80;97.20;;;;;;5054882;28;20044;-80
2021/08/01 01:04:04;;;;;;;10.48;8.93;;;23.70;97.20;;;;;;5054819;28;20071;-80
2021/08/01 01:06:41;;;;;;;11.45;9.60;;;23.60;97.40;;;;;;5054720;28;20025;-80
2021/08/01 01:09:31;;;;;;;11.93;9.10;;;23.60;97.40;;;;;;5052616;28;20025;-81
2021/08/01 01:12:02;;;;;;;9.80;8.63;;;23.50;96.70;;;;;;5054209;28;20048;-81
2021/08/01 01:14:29;;;;;;;9.70;8.70;;;23.30;97.50;;;;;;5054395;28;20079;-81
2021/08/01 01:17:00;;;;;;;12.57;9.13;;;23.30;97.30;;;;;;5054310;28;20357;-80
2021/08/01 01:19:45;;;;;;;9.63;8.63;;;23.40;97.10;;;;;;5054509;28;20071;-80
2021/08/01 01:22:23;;;;;;;13.05;9.60;;;23.30;97.10;;;;;;5054072;28;20057;-80
2021/08/01 01:24:51;;;;;;;16.23;8.90;;;23.30;97.30;;;;;;5054152;28;20025;-80
2021/08/01 01:27:37;;;;;;;10.65;8.80;;;23.30;97.40;;;;;;5054078;28;20112;-80
2021/08/01 01:30:04;;;;;;;9.65;8.75;;;23.30;97.40;;;;;;5054011;28;20036;-80
2021/08/01 01:33:07;;;;;;;13.65;9.20;;;23.30;97.70;;;;;;5054662;28;20108;-80
2021/08/01 01:35:37;;;;;;;12.65;9.20;;;23.20;97.70;;;;;;5054284;28;20029;-80
2021/08/01 01:38:04;;;;;;;15.07;10.38;;;23.10;97.90;;;;;;5054245;28;20027;-80
2021/08/01 01:40:31;;;;;;;13.27;10.32;;;23.10;97.90;;;;;;5053810;28;20029;-80
2021/08/01 01:42:58;;;;;;;16.70;10.95;;;23.10;97.90;;;;;;5053806;28;20036;-80
2021/08/01 01:45:26;;;;;;;13.30;10.55;;;23.00;98.00;;;;;;5053886;28;20443;-80
2021/08/01 01:47:52;;;;;;;14.23;11.27;;;23.00;98.00;;;;;;5053849;28;20041;-81
2021/08/01 01:50:19;;;;;;;13.02;11.00;;;23.00;98.00;;;;;;5054284;28;20436;-81
2021/08/01 01:52:48;;;;;;;13.35;11.52;;;22.90;98.00;;;;;;5053957;28;20031;-80
2021/08/01 01:55:16;;;;;;;14.48;10.65;;;22.90;98.00;;;;;;5054139;28;20025;-80
2021/08/01 01:57:42;;;;;;;15.32;10.82;;;22.90;97.90;;;;;;5053800;28;20031;-80
2021/08/01 02:00:08;;;;;;;12.77;9.73;;;22.90;97.80;;;;;;5053507;28;20053;-81
2021/08/01 02:02:36;;;;;;;15.73;10.07;;;22.90;97.60;;;;;;5053684;28;20022;-80
2021/08/01 02:05:02;;;;;;;13.13;9.85;;;22.90;97.60;;;;;;5053882;28;20047;-80
2021/08/01 02:07:35;;;;;;;12.32;10.00;;;22.90;97.50;;;;;;5052404;28;20416;-80
2021/08/01 02:10:12;;;;;;;10.70;9.60;;;22.90;97.50;;;;;;5053568;28;20124;-80
2021/08/01 02:12:49;;;;;;;10.10;8.65;;;22.90;97.60;;;;;;5053468;28;20025;-80
2021/08/01 02:15:17;;;;;;;10.25;8.95;;;22.90;97.60;;;;;;5053619;28;20104;-80
2021/08/01 02:17:49;;;;;;;12.55;9.80;;;22.80;97.50;;;;;;5053525;28;20085;-80
2021/08/01 02:20:21;;;;;;;12.55;9.68;;;22.80;97.60;;;;;;5053643;28;20067;-80
2021/08/01 02:22:49;;;;;;;12.75;10.38;;;22.90;97.70;;;;;;5056189;28;20380;-80
2021/08/01 02:25:17;;;;;;;10.93;8.85;;;22.90;97.80;;;;;;5057479;28;20356;-80
2021/08/01 02:27:44;;;;;;;13.68;10.27;;;22.80;97.80;;;;;;5056134;28;20497;-80
2021/08/01 02:30:10;;;;;;;14.25;10.10;;;22.80;97.60;;;;;;5057354;28;20032;-80
2021/08/01 02:32:38;;;;;;;11.13;9.32;;;22.80;97.70;;;;;;5057674;28;20025;-80
2021/08/01 02:35:04;;;;;;;14.93;10.10;;;22.80;97.70;;;;;;5057552;28;20037;-80
2021/08/01 02:37:31;;;;;;;15.38;10.88;;;22.80;97.80;;;;;;5057509;28;20053;-80
2021/08/01 02:39:58;;;;;;;15.98;10.82;;;22.80;97.80;;;;;;5057457;28;20112;-80
2021/08/01 02:42:24;;;;;;;13.63;10.85;;;22.80;97.90;;;;;;5057154;28;20143;-80
2021/08/01 02:44:55;;;;;;;14.68;11.55;;;22.80;97.90;;;;;;5057239;28;20108;-80
2021/08/01 02:47:22;;;;;;;17.73;11.48;;;22.80;98.00;;;;;;5057092;28;20031;-80
2021/08/01 02:49:50;;;;;;;19.00;11.23;;;22.60;98.20;;;;;;5057049;28;20021;-80
2021/08/01 02:52:20;;;;;;;14.07;11.10;;;22.70;98.30;;;;;;5057284;28;20048;-80
2021/08/01 02:54:49;;;;;;;17.95;11.30;;;22.70;98.30;;;;;;5057193;28;20017;-80
2021/08/01 02:57:17;;;;;;;14.88;11.48;;;22.70;98.30;;;;;;5056945;28;20464;-80
2021/08/01 02:59:45;;;;;;;17.63;11.55;;;22.70;98.50;;;;;;5056469;28;20076;-81
2021/08/01 03:02:12;;;;;;;14.57;11.02;;;22.70;98.50;;;;;;5056802;28;20078;-81
2021/08/01 03:04:41;;;;;;;18.45;12.02;;;22.80;98.70;;;;;;5056650;28;20028;-80
2021/08/01 03:07:10;;;;;;;14.70;10.93;;;22.80;98.60;;;;;;5057022;28;20367;-81
2021/08/01 03:09:36;;;;;;;20.63;12.65;;;22.90;98.40;;;;;;5056658;28;20387;-81
2021/08/01 03:12:15;;;;;;;12.57;10.50;;;22.80;97.80;;;;;;5056582;28;20025;-81
2021/08/01 03:14:41;;;;;;;15.40;11.57;;;22.90;97.90;;;;;;5056887;28;20025;-81
2021/08/01 03:17:07;;;;;;;12.45;10.13;;;23.00;97.60;;;;;;5056863;28;20035;-81
2021/08/01 03:19:35;;;;;;;16.17;10.60;;;23.00;97.60;;;;;;5056371;28;20483;-81
2021/08/01 03:22:01;;;;;;;14.55;10.90;;;23.10;97.60;;;;;;5056642;28;20033;-81
2021/08/01 03:24:27;;;;;;;15.25;10.93;;;23.10;97.50;;;;;;5056347;28;20025;-81
2021/08/01 03:26:52;;;;;;;16.90;12.05;;;23.20;97.50;;;;;;5055123;28;20527;-81
2021/08/01 03:29:18;;;;;;;12.48;10.48;;;23.30;97.00;;;;;;5056610;28;20033;-81
2021/08/01 03:31:44;;;;;;;15.05;11.60;;;23.40;97.10;;;;;;5056581;28;20033;-81
2021/08/01 03:34:09;;;;;;;15.00;11.25;;;23.50;96.70;;;;;;5056048;28;20519;-81
2021/08/01 03:36:35;;;;;;;17.65;12.18;;;23.70;96.80;;;;;;5056495;28;20025;-80
2021/08/01 03:39:02;;;;;;;19.50;11.13;;;23.80;96.20;;;;;;5056303;28;20025;-81
2021/08/01 03:41:31;;;;;;;11.90;10.43;;;23.90;96.20;;;;;;5054799;28;20034;-83
2021/08/01 03:43:57;;;;;;;12.85;10.93;;;24.00;95.70;;;;;;5056045;28;20074;-82
2021/08/01 03:46:22;;;;;;;11.32;10.10;;;24.20;95.60;;;;;;5055888;28;20029;-82
2021/08/01 03:48:48;;;;;;;11.93;10.55;;;24.20;95.10;;;;;;5056304;28;20021;-83
2021/08/01 03:51:14;;;;;;;11.82;10.07;;;24.30;95.20;;;;;;5054593;28;20498;-83
2021/08/01 03:53:40;;;;;;;13.20;10.38;;;24.40;95.40;;;;;;5054685;28;20364;-82
2021/08/01 03:56:05;;;;;;;11.30;9.73;;;24.60;95.00;;;;;;5055922;28;20021;-82
2021/08/01 03:58:31;;;;;;;12.38;9.98;;;24.60;94.70;;;;;;5055827;28;20025;-82
2021/08/01 04:00:57;;;;;;;13.68;10.13;;;24.70;94.20;;;;;;5055569;28;20045;-81
2021/08/01 04:03:23;;;;;;;12.38;9.35;;;24.80;94.00;;;;;;5055876;28;20028;-82
2021/08/01 18:25:31;;;;;;;45.67;22.30;;;28.70;81.20;;;;;;5070852;28;20375;-83
2021/08/01 18:27:57;;;;;;;37.90;18.95;;;28.40;82.30;;;;;;5070978;28;20033;-84
2021/08/01 18:30:23;;;;;;;28.85;16.63;;;28.30;82.80;;;;;;5070999;28;20017;-84
2021/08/01 18:32:55;;;;;;;20.27;13.60;;;28.30;83.20;;;;;;5071155;28;20044;-84
2021/08/01 18:35:21;;;;;;;25.88;12.18;;;28.20;83.30;;;;;;5071474;28;20029;-83
2021/08/01 18:37:46;;;;;;;14.65;10.38;;;28.20;83.70;;;;;;5071028;28;20379;-87
2021/08/01 18:40:17;;;;;;;10.25;8.93;;;28.20;83.80;;;;;;5071081;28;20024;-88
2021/08/01 18:42:49;;;;;;;14.15;10.80;;;28.20;83.40;;;;;;5069719;28;20124;-89
2021/08/01 18:45:18;;;;;;;12.20;10.25;;;28.10;85.10;;;;;;5051910;28;20032;-87
2021/08/01 18:47:46;;;;;;;12.07;9.27;;;28.10;84.70;;;;;;5050889;28;20380;-87
2021/08/01 18:50:12;;;;;;;18.75;10.20;;;28.10;84.20;;;;;;5050729;28;20502;-88
2021/08/01 18:52:44;;;;;;;11.13;8.32;;;28.10;84.30;;;;;;5050539;28;20021;-86
2021/08/01 18:55:26;;;;;;;14.73;9.77;;;28.10;85.10;;;;;;5050481;28;20021;-85
2021/08/01 18:57:53;;;;;;;14.13;11.27;;;28.10;85.30;;;;;;5049015;28;20432;-87
2021/08/01 19:00:19;;;;;;;16.42;13.27;;;28.20;85.20;;;;;;5048823;28;20098;-81
2021/08/01 19:02:46;;;;;;;11.50;8.85;;;28.10;85.00;;;;;;5050483;28;20483;-90
2021/08/01 19:05:12;;;;;;;15.82;10.13;;;28.20;84.40;;;;;;5048776;28;20037;-81
2021/08/01 19:07:40;;;;;;;10.48;9.30;;;28.10;86.30;;;;;;5050046;28;20032;-85
2021/08/01 19:10:06;;;;;;;12.48;10.25;;;28.10;85.70;;;;;;5056361;28;20016;-83
2021/08/01 19:12:34;;;;;;;14.15;9.23;;;28.10;86.20;;;;;;5070124;28;20390;-85
2021/08/01 19:15:00;;;;;;;12.75;9.50;;;28.00;85.70;;;;;;5068628;28;20155;-86
2021/08/01 19:17:49;;;;;;;23.75;9.57;;;28.00;86.10;;;;;;5068844;28;20078;-84
2021/08/01 19:20:22;;;;;;;11.27;8.80;;;27.90;87.60;;;;;;5069915;28;20021;-87
2021/08/01 19:23:09;;;;;;;9.60;8.50;;;27.80;87.70;;;;;;5069775;28;20272;-85
2021/08/01 19:25:43;;;;;;;10.15;8.25;;;27.80;88.50;;;;;;5068316;28;20147;-84
2021/08/01 19:28:09;;;;;;;8.88;7.75;;;27.70;87.30;;;;;;5069536;28;20418;-85
2021/08/01 19:30:39;;;;;;;12.60;9.38;;;27.80;86.80;;;;;;5069350;28;20016;-86
2021/08/01 19:33:06;;;;;;;14.60;9.50;;;27.70;87.80;;;;;;5069469;28;20074;-87
2021/08/01 19:35:34;;;;;;;9.68;7.85;;;27.60;87.50;;;;;;5063474;28;20251;-84
2021/08/01 19:38:04;;;;;;;8.77;7.88;;;27.60;86.90;;;;;;5056192;28;20440;-85
2021/08/01 19:40:30;;;;;;;15.20;13.48;;;27.60;86.90;;;;;;5056019;28;20024;-88
2021/08/01 19:42:57;;;;;;;15.30;13.25;;;27.50;87.50;;;;;;5055990;28;20033;-84
2021/08/01 19:45:23;;;;;;;16.42;9.35;;;27.50;88.10;;;;;;5055965;28;20118;-86
2021/08/01 19:47:50;;;;;;;9.18;7.88;;;27.50;87.80;;;;;;5056103;28;20028;-85
2021/08/01 19:50:16;;;;;;;11.75;8.05;;;27.40;87.40;;;;;;5055922;28;20029;-85
2021/08/01 19:52:42;;;;;;;12.50;9.80;;;27.40;88.10;;;;;;5056035;28;20184;-86
2021/08/01 19:55:09;;;;;;;17.70;10.57;;;27.30;88.90;;;;;;5054576;28;20029;-88
2021/08/01 19:57:35;;;;;;;13.93;8.70;;;27.30;88.80;;;;;;5055832;28;20472;-86
2021/08/01 20:00:01;;;;;;;11.65;8.07;;;27.20;88.70;;;;;;5055859;28;20086;-87
2021/08/01 20:02:26;;;;;;;11.93;7.97;;;27.20;87.70;;;;;;5055902;28;20100;-88
2021/08/01 20:04:52;;;;;;;14.90;11.18;;;27.20;88.00;;;;;;5055543;28;20111;-85
2021/08/01 20:07:18;;;;;;;13.57;10.10;;;27.20;87.50;;;;;;5054340;28;20017;-86
2021/08/01 20:09:44;;;;;;;10.50;8.50;;;27.20;88.20;;;;;;5055426;28;20028;-86
2021/08/01 20:12:11;;;;;;;10.23;8.55;;;27.10;88.30;;;;;;5055453;28;20017;-85
2021/08/01 20:14:37;;;;;;;12.35;8.73;;;27.00;88.60;;;;;;5055378;28;20033;-85
2021/08/01 20:17:06;;;;;;;13.45;9.02;;;26.90;90.00;;;;;;5054127;28;20029;-86
2021/08/01 20:19:32;;;;;;;10.02;7.93;;;26.80;90.10;;;;;;5054040;28;20029;-85
2021/08/01 20:21:58;;;;;;;12.02;8.43;;;26.80;89.40;;;;;;5053968;28;20032;-86
2021/08/01 20:24:24;;;;;;;10.35;7.57;;;26.80;89.90;;;;;;5055042;28;20094;-85
2021/08/01 20:26:50;;;;;;;9.52;7.30;;;26.80;88.80;;;;;;5054154;28;20087;-85
2021/08/01 20:29:15;;;;;;;10.07;7.65;;;26.80;88.10;;;;;;5054088;28;20057;-86
2021/08/01 20:31:41;;;;;;;12.10;9.50;;;26.80;88.50;;;;;;5054005;28;20052;-85
2021/08/01 20:34:08;;;;;;;14.77;9.15;;;26.80;88.60;;;;;;5055494;28;20021;-85
2021/08/01 20:36:34;;;;;;;17.52;8.70;;;26.60;90.10;;;;;;5055176;28;20025;-85
2021/08/01 20:39:00;;;;;;;11.75;8.32;;;26.60;90.00;;;;;;5055165;28;20499;-86
2021/08/01 20:41:26;;;;;;;9.00;7.95;;;26.60;90.10;;;;;;5055082;28;20060;-85
2021/08/01 20:43:51;;;;;;;17.65;8.73;;;26.60;89.50;;;;;;5055113;28;20028;-82
2021/08/01 20:46:17;;;;;;;9.25;7.85;;;26.60;90.10;;;;;;5053596;28;20033;-83
2021/08/01 20:48:43;;;;;;;13.27;8.50;;;26.50;89.60;;;;;;5052930;28;20017;-88
2021/08/01 20:51:08;;;;;;;9.00;7.70;;;26.50;90.20;;;;;;5055104;28;20017;-86
2021/08/01 20:53:34;;;;;;;12.65;10.13;;;26.40;90.10;;;;;;5053740;28;20040;-85
2021/08/01 20:56:00;;;;;;;14.50;9.32;;;26.50;90.00;;;;;;5054903;28;20021;-86
2021/08/01 20:58:26;;;;;;;13.23;11.45;;;26.40;90.10;;;;;;5054782;28;20025;-86
2021/08/01 21:00:52;;;;;;;9.23;7.90;;;26.30;90.40;;;;;;5054817;28;20051;-87
2021/08/01 21:03:18;;;;;;;10.73;7.97;;;26.40;90.00;;;;;;5053355;28;20021;-87
2021/08/01 21:05:43;;;;;;;8.50;7.35;;;26.30;90.30;;;;;;5053325;28;20032;-86
2021/08/01 21:08:10;;;;;;;12.05;7.57;;;26.40;90.10;;;;;;5054645;28;20099;-87
2021/08/01 21:10:36;;;;;;;8.50;7.22;;;26.30;90.00;;;;;;5053370;28;20079;-86
2021/08/01 21:13:02;;;;;;;7.72;6.88;;;26.30;90.00;;;;;;5053350;28;20438;-88
2021/08/01 21:15:28;;;;;;;11.52;7.68;;;26.30;90.10;;;;;;5054556;28;20086;-87
2021/08/01 21:17:56;;;;;;;9.02;8.13;;;26.30;90.40;;;;;;5054528;28;20491;-87
2021/08/01 21:20:22;;;;;;;11.95;8.82;;;26.20;91.20;;;;;;5053135;28;20040;-88
2021/08/01 21:22:48;;;;;;;9.32;7.75;;;26.00;91.90;;;;;;5053290;28;20024;-87
2021/08/01 21:25:13;;;;;;;12.63;8.98;;;26.00;91.50;;;;;;5052826;28;20053;-87
2021/08/01 21:27:39;;;;;;;14.00;9.02;;;25.90;91.70;;;;;;5053105;28;20379;-86
2021/08/01 21:30:06;;;;;;;11.75;8.60;;;25.80;92.50;;;;;;5053013;28;20043;-87
2021/08/01 21:32:31;;;;;;;11.07;8.68;;;25.80;92.70;;;;;;5054235;28;20118;-86
2021/08/01 21:34:59;;;;;;;12.02;8.50;;;25.80;93.00;;;;;;5052932;28;20496;-87
2021/08/01 21:37:25;;;;;;;9.88;8.57;;;25.60;93.30;;;;;;5052903;28;20029;-87
2021/08/01 21:39:52;;;;;;;10.13;9.00;;;25.60;93.30;;;;;;5052835;28;20029;-86
2021/08/01 21:42:18;;;;;;;12.50;9.02;;;25.60;93.60;;;;;;5054399;28;20463;-86
2021/08/01 21:44:44;;;;;;;10.32;8.57;;;25.50;94.00;;;;;;5054227;28;20031;-88
2021/08/01 21:47:09;;;;;;;13.60;9.10;;;25.50;93.60;;;;;;5054030;28;20023;-88
2021/08/01 21:49:35;;;;;;;12.02;9.50;;;25.40;94.10;;;;;;5052428;28;20025;-87
2021/08/01 21:52:01;;;;;;;9.85;8.48;;;25.40;94.10;;;;;;5052724;28;20025;-87
2021/08/01 21:54:28;;;;;;;13.50;9.25;;;25.40;94.00;;;;;;5052699;28;20041;-88
2021/08/01 21:56:53;;;;;;;13.10;9.02;;;25.40;93.70;;;;;;5052640;28;20116;-87
2021/08/01 21:59:19;;;;;;;10.20;8.65;;;25.40;94.00;;;;;;5053669;28;20060;-86
2021/08/01 22:01:52;;;;;;;10.68;8.80;;;25.40;93.80;;;;;;5052500;28;20021;-86
2021/08/01 22:04:24;;;;;;;10.57;7.95;;;25.40;93.70;;;;;;5052443;28;20057;-88
2021/08/01 22:06:53;;;;;;;13.25;9.80;;;25.40;93.90;;;;;;5046211;28;20052;-87
2021/08/01 22:09:19;;;;;;;14.30;9.43;;;25.40;94.40;;;;;;5054004;28;20028;-88
2021/08/01 22:11:45;;;;;;;11.80;8.85;;;25.30;94.30;;;;;;5052384;28;20066;-87
2021/08/01 22:14:13;;;;;;;11.23;8.60;;;25.30;94.30;;;;;;5052409;28;20108;-87
2021/08/01 22:16:41;;;;;;;12.25;9.65;;;25.30;94.20;;;;;;5053479;28;20021;-87
2021/08/01 22:19:07;;;;;;;12.10;9.27;;;25.30;94.50;;;;;;5052304;28;20025;-86
2021/08/01 22:21:32;;;;;;;12.43;9.57;;;25.20;94.90;;;;;;5052337;28;20028;-86
2021/08/01 22:23:58;;;;;;;10.70;8.68;;;25.20;95.00;;;;;;5053229;28;20048;-87
2021/08/01 22:26:27;;;;;;;10.65;8.82;;;25.20;95.20;;;;;;5053776;28;20028;-87
2021/08/01 22:28:55;;;;;;;12.18;8.10;;;25.10;94.90;;;;;;5053466;28;20013;-87
2021/08/01 22:31:27;;;;;;;9.02;8.13;;;25.20;94.70;;;;;;5052157;28;20025;-87
2021/08/01 22:33:55;;;;;;;11.57;9.15;;;25.20;94.50;;;;;;5053722;28;20064;-87
2021/08/01 22:36:29;;;;;;;12.80;9.50;;;25.10;95.00;;;;;;5052239;28;20026;-87
2021/08/01 22:38:56;;;;;;;10.85;9.63;;;25.00;95.70;;;;;;5053395;28;20057;-87
2021/08/01 22:41:22;;;;;;;16.25;9.20;;;24.90;95.80;;;;;;5052173;28;20060;-85
2021/08/01 22:43:49;;;;;;;10.98;8.55;;;24.90;95.70;;;;;;5053302;28;20491;-85
2021/08/01 22:46:15;;;;;;;10.45;8.13;;;25.00;95.40;;;;;;5053380;28;20468;-83
2021/08/01 22:48:43;;;;;;;10.75;8.45;;;24.90;95.70;;;;;;5053474;28;20425;-84
2021/08/01 22:51:09;;;;;;;13.63;9.10;;;24.90;95.80;;;;;;5053430;28;20101;-84
2021/08/01 22:53:39;;;;;;;11.25;8.77;;;24.90;96.00;;;;;;5052032;28;20508;-84
2021/08/01 22:56:04;;;;;;;12.73;9.30;;;24.90;95.90;;;;;;5053316;28;20474;-84
2021/08/01 22:58:30;;;;;;;9.75;8.02;;;24.80;96.10;;;;;;5052023;28;20067;-84
2021/08/01 23:01:03;;;;;;;10.77;8.95;;;24.80;96.00;;;;;;5051925;28;20116;-84
2021/08/01 23:03:44;;;;;;;12.82;8.73;;;24.80;96.30;;;;;;5053541;28;20131;-84
2021/08/01 23:06:29;;;;;;;11.23;8.70;;;24.80;96.00;;;;;;5053201;28;20025;-84
2021/08/01 23:09:07;;;;;;;11.00;9.20;;;24.80;96.30;;;;;;5051910;28;20025;-84
2021/08/01 23:11:41;;;;;;;10.80;9.18;;;24.80;96.30;;;;;;5054358;28;20021;-84
2021/08/01 23:14:31;;;;;;;10.55;9.30;;;24.80;96.60;;;;;;5056954;28;20029;-84
2021/08/01 23:17:03;;;;;;;10.50;9.15;;;24.70;96.60;;;;;;5055712;28;20059;-84
2021/08/01 23:19:33;;;;;;;11.23;9.18;;;24.70;96.50;;;;;;5056838;28;20360;-84
2021/08/01 23:22:03;;;;;;;9.95;8.95;;;24.80;96.30;;;;;;5055552;28;20029;-84
2021/08/01 23:24:34;;;;;;;;;;;24.70;96.40;;;;;;5056963;28;20080;-84
2021/08/01 23:27:00;;;;;;;10.35;8.68;;;24.60;97.30;;;;;;5055270;28;19908;-84
2021/08/01 23:29:28;;;;;;;9.77;8.40;;;24.60;96.90;;;;;;5056919;28;20027;-84
2021/08/01 23:31:54;;;;;;;12.73;9.07;;;24.60;96.60;;;;;;5056603;28;20419;-84
2021/08/01 23:34:22;;;;;;;11.48;10.00;;;24.70;96.50;;;;;;5056546;28;20035;-84
2021/08/01 23:36:50;;;;;;;13.43;10.00;;;24.70;96.70;;;;;;5056890;28;20021;-84
2021/08/01 23:39:17;;;;;;;10.27;9.27;;;24.50;97.30;;;;;;5055214;28;20448;-84
2021/08/01 23:41:46;;;;;;;11.25;9.90;;;24.50;97.50;;;;;;5056487;28;20029;-85
2021/08/01 23:44:16;;;;;;;14.27;11.50;;;24.50;97.40;;;;;;5056398;28;20056;-84
2021/08/01 23:46:46;;;;;;;11.73;10.40;;;24.50;97.70;;;;;;5056626;28;20031;-84
2021/08/01 23:49:14;;;;;;;;;;;24.30;98.30;;;;;;5057045;28;20371;-85
2021/08/01 23:51:55;;;;;;;12.20;9.82;;;24.20;98.70;;;;;;5055012;28;19951;-85
2021/08/01 23:54:32;;;;;;;12.93;10.07;;;24.20;98.40;;;;;;5056127;28;20021;-85
2021/08/01 23:57:30;;;;;;;14.93;10.20;;;24.30;98.20;;;;;;5056218;28;20064;-83
